Time,TemperatureF,DewpointF,PressureIn,WindDirection,WindDirectionDegrees,WindSpeedMPH,WindSpeedGustMPH,Humidity,HourlyPrecipIn,Conditions,Clouds,dailyrainin,SoftwareType,DateUTC
2013-01-09 00:00:00,23.0,22.0,30.22,SSE,159,0.0,0.0,96,0.00,,,0.00,Wunderground v.1.15,2013-01-09 05:00:00,
2013-01-09 00:05:00,22.7,21.7,30.22,SSE,160,0.0,0.0,96,0.00,,,0.00,Wunderground v.1.15,2013-01-09 05:05:00,
2013-01-09 00:10:00,22.5,21.5,30.22,SSE,159,0.0,0.0,96,0.00,,,0.00,Wunderground v.1.15,2013-01-09 05:10:00,
2013-01-09 00:20:00,22.1,21.1,30.23,SSE,159,0.0,0.0,96,0.00,,,0.00,Wunderground v.1.15,2013-01-09 05:20:00,
2013-01-09 00:25:00,22.0,21.0,30.23,SSE,159,0.0,0.0,96,0.00,,,0.00,Wunderground v.1.15,2013-01-09 05:25:00,
2013-01-09 00:30:00,22.1,21.1,30.22,SSE,160,0.0,0.0,96,0.00,,,0.00,Wunderground v.1.15,2013-01-09 05:30:00,
2013-01-09 00:35:00,22.1,21.1,30.22,SSE,158,0.0,0.0,96,0.00,,,0.00,Wunderground v.1.15,2013-01-09 05:35:00,
2013-01-09 00:40:00,22.3,21.3,30.22,SSE,158,0.0,0.0,96,0.00,,,0.00,Wunderground v.1.15,2013-01-09 05:40:00,
2013-01-09 00:45:00,22.2,21.2,30.21,SSE,158,0.0,0.0,96,0.00,,,0.00,Wunderground v.1.15,2013-01-09 05:45:00,
2013-01-09 00:55:00,22.2,21.2,30.21,SSE,158,0.0,0.0,96,0.00,,,0.00,Wunderground v.1.15,2013-01-09 05:55:00,
2013-01-09 01:00:00,22.1,21.1,30.20,SSE,158,0.0,0.0,96,0.00,,,0.00,Wunderground v.1.15,2013-01-09 06:00:00,
2013-01-09 01:05:00,22.1,21.1,30.20,SSE,158,0.0,0.0,96,0.00,,,0.00,Wunderground v.1.15,2013-01-09 06:05:00,
2013-01-09 01:15:00,22.2,21.2,30.20,SSE,158,0.0,0.0,96,0.00,,,0.00,Wunderground v.1.15,2013-01-09 06:15:00,
2013-01-09 01:25:00,21.8,20.6,30.19,SSE,158,0.0,0.0,95,0.00,,,0.00,Wunderground v.1.15,2013-01-09 06:25:00,
2013-01-09 01:30:00,21.8,20.6,30.19,SSE,158,0.0,0.0,95,0.00,,,0.00,Wunderground v.1.15,2013-01-09 06:30:00,
2013-01-09 01:35:00,22.1,21.1,30.18,SSE,158,0.0,0.0,96,0.00,,,0.00,Wunderground v.1.15,2013-01-09 06:35:00,
2013-01-09 01:45:00,21.9,20.9,30.17,SSE,158,0.0,0.0,96,0.00,,,0.00,Wunderground v.1.15,2013-01-09 06:45:00,
2013-01-09 01:50:00,21.5,20.3,30.17,SSE,158,0.0,0.0,95,0.00,,,0.00,Wunderground v.1.15,2013-01-09 06:50:00,
2013-01-09 01:55:00,21.3,20.1,30.17,SSE,158,0.0,0.0,95,0.00,,,0.00,Wunderground v.1.15,2013-01-09 06:55:00,
2013-01-09 02:00:00,20.9,19.7,30.17,WSW,246,0.0,0.0,95,0.00,,,0.00,Wunderground v.1.15,2013-01-09 07:00:00,
2013-01-09 02:05:00,21.1,20.1,30.17,WSW,246,0.0,0.0,96,0.00,,,0.00,Wunderground v.1.15,2013-01-09 07:05:00,
2013-01-09 02:15:00,21.7,20.7,30.16,WSW,246,0.0,0.0,96,0.00,,,0.00,Wunderground v.1.15,2013-01-09 07:15:00,
2013-01-09 02:20:00,21.7,20.7,30.17,WSW,246,0.0,0.0,96,0.00,,,0.00,Wunderground v.1.15,2013-01-09 07:20:00,
2013-01-09 02:25:00,21.7,20.7,30.17,WSW,246,0.0,0.0,96,0.00,,,0.00,Wunderground v.1.15,2013-01-09 07:25:00,
2013-01-09 02:30:00,22.0,21.0,30.17,WSW,246,0.0,0.0,96,0.00,,,0.00,Wunderground v.1.15,2013-01-09 07:30:00,
2013-01-09 02:35:00,21.8,20.6,30.17,WSW,246,0.0,0.0,95,0.00,,,0.00,Wunderground v.1.15,2013-01-09 07:35:00,
2013-01-09 02:45:00,22.0,21.0,30.17,WSW,246,0.0,0.0,96,0.00,,,0.00,Wunderground v.1.15,2013-01-09 07:45:00,
2013-01-09 02:50:00,22.1,21.1,30.17,WSW,246,0.0,0.0,96,0.00,,,0.00,Wunderground v.1.15,2013-01-09 07:50:00,
2013-01-09 02:55:00,22.2,21.2,30.17,WSW,246,0.0,0.0,96,0.00,,,0.00,Wunderground v.1.15,2013-01-09 07:55:00,
2013-01-09 03:00:00,22.2,21.2,30.17,WSW,246,0.0,0.0,96,0.00,,,0.00,Wunderground v.1.15,2013-01-09 08:00:00,
2013-01-09 03:05:00,22.5,21.5,30.17,WSW,246,0.0,0.0,96,0.00,,,0.00,Wunderground v.1.15,2013-01-09 08:05:00,
2013-01-09 03:15:00,22.5,21.5,30.17,WSW,246,0.0,0.0,96,0.00,,,0.00,Wunderground v.1.15,2013-01-09 08:15:00,
2013-01-09 03:25:00,22.2,21.2,30.17,WSW,246,0.0,0.0,96,0.00,,,0.00,Wunderground v.1.15,2013-01-09 08:25:00,
2013-01-09 03:35:00,23.2,22.5,30.16,SSE,156,0.0,1.0,97,0.00,,,0.00,Wunderground v.1.15,2013-01-09 08:35:00,
2013-01-09 09:00:00,38.5,33.8,30.14,WNW,285,4.0,5.0,83,0.00,,,0.00,Wunderground v.1.15,2013-01-09 14:00:00,
2013-01-09 09:10:00,38.9,33.9,30.14,West,262,3.0,3.0,82,0.00,,,0.00,Wunderground v.1.15,2013-01-09 14:10:00,
2013-01-09 09:20:00,39.3,34.0,30.13,West,277,3.0,5.0,81,0.00,,,0.01,Wunderground v.1.15,2013-01-09 14:20:00,
2013-01-09 09:25:00,39.5,34.2,30.14,West,271,3.0,5.0,81,0.00,,,0.01,Wunderground v.1.15,2013-01-09 14:25:00,
2013-01-09 09:30:00,39.7,34.0,30.14,SW,232,4.0,4.0,80,0.00,,,0.01,Wunderground v.1.15,2013-01-09 14:30:00,
2013-01-09 09:40:00,40.1,34.4,30.15,WSW,246,3.0,4.0,80,0.00,,,0.01,Wunderground v.1.15,2013-01-09 14:40:00,
2013-01-09 09:45:00,40.4,34.4,30.15,South,180,2.0,4.0,79,0.00,,,0.01,Wunderground v.1.15,2013-01-09 14:45:00,
2013-01-09 09:50:00,40.5,34.5,30.15,West,275,3.0,6.0,79,0.00,,,0.01,Wunderground v.1.15,2013-01-09 14:50:00,
2013-01-09 09:55:00,40.7,34.4,30.15,WNW,295,4.0,6.0,78,0.00,,,0.01,Wunderground v.1.15,2013-01-09 14:55:00,
2013-01-09 10:00:00,41.0,34.3,30.15,West,276,4.0,5.0,77,0.00,,,0.01,Wunderground v.1.15,2013-01-09 15:00:00,
2013-01-09 10:10:00,41.7,34.7,30.15,WNW,283,3.0,5.0,76,0.00,,,0.01,Wunderground v.1.15,2013-01-09 15:10:00,
2013-01-09 10:15:00,42.2,34.8,30.16,WSW,243,3.0,5.0,75,0.00,,,0.01,Wunderground v.1.15,2013-01-09 15:15:00,
2013-01-09 10:20:00,42.5,34.5,30.16,WNW,288,3.0,4.0,73,0.00,,,0.01,Wunderground v.1.15,2013-01-09 15:20:00,
2013-01-09 10:30:00,42.9,34.5,30.16,SW,220,4.0,11.0,72,0.00,,,0.01,Wunderground v.1.15,2013-01-09 15:30:00,
2013-01-09 10:35:00,43.0,34.6,30.16,WNW,283,5.0,11.0,72,0.00,,,0.01,Wunderground v.1.15,2013-01-09 15:35:00,
2013-01-09 10:40:00,43.0,34.2,30.17,West,265,5.0,6.0,71,0.00,,,0.01,Wunderground v.1.15,2013-01-09 15:40:00,
2013-01-09 10:45:00,43.0,34.2,30.17,WNW,282,5.0,6.0,71,0.00,,,0.01,Wunderground v.1.15,2013-01-09 15:45:00,
2013-01-09 11:00:00,43.3,34.2,30.17,WNW,302,4.0,4.0,70,0.00,,,0.01,Wunderground v.1.15,2013-01-09 16:00:00,
2013-01-09 11:10:00,43.4,33.5,30.17,WNW,285,5.0,9.0,68,0.00,,,0.01,Wunderground v.1.15,2013-01-09 16:10:00,
2013-01-09 11:15:00,43.3,33.4,30.17,WNW,284,5.0,9.0,68,0.00,,,0.01,Wunderground v.1.15,2013-01-09 16:15:00,
2013-01-09 13:10:00,45.3,31.8,30.16,WSW,247,4.0,4.0,59,0.00,,,0.01,Wunderground v.1.15,2013-01-09 18:10:00,
2013-01-09 13:20:00,45.5,31.1,30.16,South,179,4.0,6.0,57,0.00,,,0.01,Wunderground v.1.15,2013-01-09 18:20:00,
2013-01-09 13:25:00,45.5,31.1,30.16,SW,233,4.0,6.0,57,0.00,,,0.01,Wunderground v.1.15,2013-01-09 18:25:00,
2013-01-09 13:30:00,45.4,30.6,30.16,WSW,248,5.0,5.0,56,0.00,,,0.01,Wunderground v.1.15,2013-01-09 18:30:00,
2013-01-09 13:35:00,45.6,30.8,30.16,West,274,4.0,5.0,56,0.00,,,0.01,Wunderground v.1.15,2013-01-09 18:35:00,
2013-01-09 13:40:00,45.9,31.5,30.17,West,277,3.0,9.0,57,0.00,,,0.01,Wunderground v.1.15,2013-01-09 18:40:00,
2013-01-09 13:45:00,45.7,30.9,30.16,WSW,256,3.0,9.0,56,0.00,,,0.01,Wunderground v.1.15,2013-01-09 18:45:00,
2013-01-09 13:50:00,45.6,30.3,30.16,WSW,242,5.0,8.0,55,0.00,,,0.01,Wunderground v.1.15,2013-01-09 18:50:00,
2013-01-09 14:00:00,45.6,30.8,30.16,West,271,5.0,6.0,56,0.00,,,0.01,Wunderground v.1.15,2013-01-09 19:00:00,
2013-01-09 14:05:00,45.6,30.8,30.16,WSW,255,4.0,15.0,56,0.00,,,0.01,Wunderground v.1.15,2013-01-09 19:05:00,
2013-01-09 14:10:00,45.6,30.3,30.17,WNW,288,5.0,7.0,55,0.00,,,0.01,Wunderground v.1.15,2013-01-09 19:10:00,
2013-01-09 14:15:00,45.7,30.4,30.17,SW,221,5.0,7.0,55,0.00,,,0.01,Wunderground v.1.15,2013-01-09 19:15:00,
2013-01-09 14:25:00,45.6,29.9,30.18,WSW,257,6.0,7.0,54,0.00,,,0.01,Wunderground v.1.15,2013-01-09 19:25:00,
2013-01-09 14:30:00,45.8,29.6,30.17,West,279,6.0,6.0,53,0.00,,,0.01,Wunderground v.1.15,2013-01-09 19:30:00,
2013-01-09 14:35:00,45.9,29.2,30.17,WNW,291,4.0,6.0,52,0.00,,,0.01,Wunderground v.1.15,2013-01-09 19:35:00,
2013-01-09 14:40:00,45.9,28.3,30.18,WSW,248,5.0,6.0,50,0.00,,,0.01,Wunderground v.1.15,2013-01-09 19:40:00,
2013-01-09 14:45:00,46.0,28.9,30.18,WNW,282,6.0,6.0,51,0.00,,,0.01,Wunderground v.1.15,2013-01-09 19:45:00,
2013-01-09 14:55:00,46.2,28.6,30.19,WSW,252,4.0,5.0,50,0.00,,,0.01,Wunderground v.1.15,2013-01-09 19:55:00,
2013-01-09 15:00:00,46.2,27.6,30.19,NW,304,5.0,8.0,48,0.00,,,0.01,Wunderground v.1.15,2013-01-09 20:00:00,
2013-01-09 15:05:00,46.2,27.6,30.20,South,180,5.0,8.0,48,0.00,,,0.01,Wunderground v.1.15,2013-01-09 20:05:00,
2013-01-09 15:10:00,46.3,27.7,30.20,WNW,300,4.0,4.0,48,0.00,,,0.01,Wunderground v.1.15,2013-01-09 20:10:00,
2013-01-09 15:20:00,46.4,26.2,30.20,WNW,300,4.0,4.0,45,0.00,,,0.01,Wunderground v.1.15,2013-01-09 20:20:00,
2013-01-09 15:25:00,46.6,25.3,30.20,WSW,248,4.0,4.0,43,0.00,,,0.01,Wunderground v.1.15,2013-01-09 20:25:00,
2013-01-09 15:30:00,46.7,24.8,30.20,West,278,5.0,5.0,42,0.00,,,0.01,Wunderground v.1.15,2013-01-09 20:30:00,
2013-01-09 15:35:00,46.6,25.3,30.21,NW,304,5.0,5.0,43,0.00,,,0.01,Wunderground v.1.15,2013-01-09 20:35:00,
2013-01-09 15:40:00,46.7,24.8,30.21,WNW,291,6.0,9.0,42,0.00,,,0.01,Wunderground v.1.15,2013-01-09 20:40:00,
2013-01-09 15:45:00,46.5,25.7,30.21,WNW,300,6.0,9.0,44,0.00,,,0.01,Wunderground v.1.15,2013-01-09 20:45:00,
2013-01-09 15:55:00,46.7,25.4,30.22,WNW,287,5.0,9.0,43,0.00,,,0.01,Wunderground v.1.15,2013-01-09 20:55:00,
2013-01-09 16:00:00,46.6,25.3,30.22,WNW,291,5.0,5.0,43,0.00,,,0.01,Wunderground v.1.15,2013-01-09 21:00:00,
2013-01-09 16:05:00,46.7,24.8,30.22,WSW,250,5.0,12.0,42,0.00,,,0.01,Wunderground v.1.15,2013-01-09 21:05:00,
2013-01-09 16:10:00,46.7,25.4,30.23,NNW,335,6.0,7.0,43,0.00,,,0.01,Wunderground v.1.15,2013-01-09 21:10:00,
2013-01-09 16:15:00,46.6,25.8,30.23,West,274,6.0,7.0,44,0.00,,,0.01,Wunderground v.1.15,2013-01-09 21:15:00,
2013-01-09 16:25:00,46.3,26.6,30.24,SW,236,4.0,5.0,46,0.00,,,0.01,Wunderground v.1.15,2013-01-09 21:25:00,
2013-01-09 16:30:00,45.9,26.3,30.24,WSW,255,3.0,5.0,46,0.00,,,0.01,Wunderground v.1.15,2013-01-09 21:30:00,
2013-01-09 16:35:00,45.7,26.6,30.24,West,280,3.0,6.0,47,0.00,,,0.01,Wunderground v.1.15,2013-01-09 21:35:00,
2013-01-09 16:45:00,45.1,26.6,30.25,West,270,4.0,4.0,48,0.00,,,0.01,Wunderground v.1.15,2013-01-09 21:45:00,
2013-01-09 16:50:00,44.9,26.4,30.25,NNW,328,3.0,3.0,48,0.00,,,0.01,Wunderground v.1.15,2013-01-09 21:50:00,
2013-01-09 16:55:00,44.5,26.5,30.25,West,266,2.0,3.0,49,0.00,,,0.01,Wunderground v.1.15,2013-01-09 21:55:00,
2013-01-09 17:00:00,44.3,26.3,30.25,WSW,251,2.0,4.0,49,0.00,,,0.01,Wunderground v.1.15,2013-01-09 22:00:00,
2013-01-09 17:05:00,44.3,26.3,30.26,WSW,248,3.0,5.0,49,0.00,,,0.01,Wunderground v.1.15,2013-01-09 22:05:00,
2013-01-09 17:10:00,44.1,26.1,30.25,WSW,242,3.0,3.0,49,0.00,,,0.01,Wunderground v.1.15,2013-01-09 22:10:00,
2013-01-09 17:20:00,43.6,25.7,30.26,West,273,2.0,3.0,49,0.00,,,0.01,Wunderground v.1.15,2013-01-09 22:20:00,
2013-01-09 17:25:00,43.5,25.1,30.26,WNW,293,2.0,3.0,48,0.00,,,0.01,Wunderground v.1.15,2013-01-09 22:25:00,
2013-01-09 17:30:00,43.4,25.0,30.27,West,275,3.0,3.0,48,0.00,,,0.01,Wunderground v.1.15,2013-01-09 22:30:00,
2013-01-09 17:35:00,43.2,25.3,30.27,WNW,292,3.0,3.0,49,0.00,,,0.01,Wunderground v.1.15,2013-01-09 22:35:00,
2013-01-09 17:40:00,42.9,25.5,30.28,WSW,253,2.0,2.0,50,0.00,,,0.01,Wunderground v.1.15,2013-01-09 22:40:00,
2013-01-09 17:50:00,42.9,24.0,30.29,West,266,3.0,4.0,47,0.00,,,0.01,Wunderground v.1.15,2013-01-09 22:50:00,
2013-01-09 17:55:00,43.1,24.2,30.29,West,260,3.0,4.0,47,0.00,,,0.01,Wunderground v.1.15,2013-01-09 22:55:00,
2013-01-09 18:00:00,43.0,24.1,30.29,ESE,107,3.0,3.0,47,0.00,,,0.01,Wunderground v.1.15,2013-01-09 23:00:00,
2013-01-09 18:05:00,42.8,24.4,30.30,SSW,211,3.0,3.0,48,0.00,,,0.01,Wunderground v.1.15,2013-01-09 23:05:00,
2013-01-09 18:10:00,42.6,24.3,30.31,SW,217,2.0,2.0,48,0.00,,,0.01,Wunderground v.1.15,2013-01-09 23:10:00,
2013-01-09 18:20:00,42.3,24.5,30.32,West,269,2.0,2.0,49,0.00,,,0.01,Wunderground v.1.15,2013-01-09 23:20:00,
2013-01-09 18:25:00,42.1,24.3,30.32,WNW,291,2.0,2.0,49,0.00,,,0.01,Wunderground v.1.15,2013-01-09 23:25:00,
2013-01-09 18:30:00,42.1,24.3,30.32,WSW,238,2.0,2.0,49,0.00,,,0.01,Wunderground v.1.15,2013-01-09 23:30:00,
2013-01-09 18:35:00,42.4,24.6,30.33,WSW,239,4.0,4.0,49,0.00,,,0.01,Wunderground v.1.15,2013-01-09 23:35:00,
2013-01-09 18:40:00,42.1,24.3,30.33,West,259,4.0,6.0,49,0.00,,,0.01,Wunderground v.1.15,2013-01-09 23:40:00,
2013-01-09 18:45:00,42.1,23.8,30.34,WNW,286,3.0,6.0,48,0.00,,,0.01,Wunderground v.1.15,2013-01-09 23:45:00,
2013-01-09 18:55:00,42.0,23.7,30.35,WNW,287,3.0,5.0,48,0.00,,,0.01,Wunderground v.1.15,2013-01-09 23:55:00,
2013-01-09 19:00:00,41.7,24.4,30.35,West,267,4.0,5.0,50,0.00,,,0.01,Wunderground v.1.15,2013-01-10 00:00:00,
2013-01-09 19:05:00,41.6,24.3,30.36,West,277,3.0,5.0,50,0.00,,,0.01,Wunderground v.1.15,2013-01-10 00:05:00,
2013-01-09 19:10:00,41.4,24.6,30.36,West,270,3.0,3.0,51,0.00,,,0.01,Wunderground v.1.15,2013-01-10 00:10:00,
2013-01-09 19:15:00,41.3,25.0,30.37,WNW,290,3.0,5.0,52,0.00,,,0.01,Wunderground v.1.15,2013-01-10 00:15:00,
2013-01-09 19:25:00,41.2,24.9,30.37,WNW,290,4.0,7.0,52,0.00,,,0.01,Wunderground v.1.15,2013-01-10 00:25:00,
2013-01-09 19:30:00,41.1,24.8,30.37,WNW,297,3.0,3.0,52,0.00,,,0.01,Wunderground v.1.15,2013-01-10 00:30:00,
2013-01-09 19:35:00,40.8,25.0,30.38,WSW,240,3.0,7.0,53,0.00,,,0.01,Wunderground v.1.15,2013-01-10 00:35:00,
2013-01-09 19:40:00,40.6,25.2,30.38,West,269,4.0,4.0,54,0.00,,,0.01,Wunderground v.1.15,2013-01-10 00:40:00,
2013-01-09 19:45:00,40.5,25.6,30.38,NNW,329,4.0,4.0,55,0.00,,,0.01,Wunderground v.1.15,2013-01-10 00:45:00,
2013-01-09 19:50:00,40.2,25.7,30.38,West,262,3.0,3.0,56,0.00,,,0.01,Wunderground v.1.15,2013-01-10 00:50:00,
2013-01-09 20:00:00,40.0,26.0,30.38,WNW,298,4.0,4.0,57,0.00,,,0.01,Wunderground v.1.15,2013-01-10 01:00:00,
2013-01-09 20:05:00,39.9,25.9,30.39,NNW,344,4.0,4.0,57,0.00,,,0.01,Wunderground v.1.15,2013-01-10 01:05:00,
2013-01-09 20:10:00,39.6,26.0,30.38,West,280,4.0,8.0,58,0.00,,,0.01,Wunderground v.1.15,2013-01-10 01:10:00,
2013-01-09 20:15:00,39.5,25.9,30.38,NW,308,4.0,8.0,58,0.00,,,0.01,Wunderground v.1.15,2013-01-10 01:15:00,
2013-01-09 20:20:00,39.3,25.7,30.39,WNW,288,4.0,4.0,58,0.00,,,0.01,Wunderground v.1.15,2013-01-10 01:20:00,
2013-01-09 20:30:00,38.7,26.0,30.39,WSW,257,3.0,4.0,60,0.00,,,0.01,Wunderground v.1.15,2013-01-10 01:30:00,
2013-01-09 20:35:00,38.6,25.9,30.39,WSW,258,3.0,4.0,60,0.00,,,0.01,Wunderground v.1.15,2013-01-10 01:35:00,
2013-01-09 20:40:00,38.5,25.8,30.40,NNE,18,3.0,4.0,60,0.00,,,0.01,Wunderground v.1.15,2013-01-10 01:40:00,
2013-01-09 20:45:00,38.4,26.1,30.40,WNW,293,4.0,4.0,61,0.00,,,0.01,Wunderground v.1.15,2013-01-10 01:45:00,
2013-01-09 20:50:00,38.3,26.0,30.40,SW,225,3.0,3.0,61,0.00,,,0.01,Wunderground v.1.15,2013-01-10 01:50:00,
2013-01-09 21:00:00,38.1,26.2,30.40,WNW,287,4.0,4.0,62,0.00,,,0.01,Wunderground v.1.15,2013-01-10 02:00:00,
2013-01-09 21:05:00,38.0,26.1,30.40,WNW,294,3.0,5.0,62,0.00,,,0.01,Wunderground v.1.15,2013-01-10 02:05:00,
2013-01-09 21:10:00,38.1,26.2,30.40,WNW,288,4.0,4.0,62,0.00,,,0.01,Wunderground v.1.15,2013-01-10 02:10:00,
2013-01-09 21:20:00,37.9,26.8,30.41,WNW,285,4.0,5.0,64,0.00,,,0.01,Wunderground v.1.15,2013-01-10 02:20:00,
2013-01-09 21:25:00,37.8,27.1,30.41,NW,309,4.0,5.0,65,0.00,,,0.01,Wunderground v.1.15,2013-01-10 02:25:00,
2013-01-09 21:30:00,37.5,26.8,30.41,NW,314,3.0,3.0,65,0.00,,,0.01,Wunderground v.1.15,2013-01-10 02:30:00,
2013-01-09 21:35:00,37.5,26.8,30.41,NW,304,4.0,4.0,65,0.00,,,0.01,Wunderground v.1.15,2013-01-10 02:35:00,
2013-01-09 21:40:00,37.3,27.0,30.42,NNW,335,4.0,7.0,66,0.00,,,0.01,Wunderground v.1.15,2013-01-10 02:40:00,
2013-01-09 21:50:00,36.9,27.0,30.42,West,260,3.0,3.0,67,0.00,,,0.01,Wunderground v.1.15,2013-01-10 02:50:00,
2013-01-09 21:55:00,36.7,27.1,30.42,NW,322,2.0,5.0,68,0.00,,,0.01,Wunderground v.1.15,2013-01-10 02:55:00,
2013-01-09 22:00:00,36.5,27.3,30.42,West,281,2.0,2.0,69,0.00,,,0.01,Wunderground v.1.15,2013-01-10 03:00:00,
2013-01-09 22:05:00,36.4,27.2,30.43,West,274,2.0,2.0,69,0.00,,,0.01,Wunderground v.1.15,2013-01-10 03:05:00,
2013-01-09 22:10:00,36.0,27.2,30.43,SW,231,1.0,1.0,70,0.00,,,0.01,Wunderground v.1.15,2013-01-10 03:10:00,
2013-01-09 22:15:00,35.9,27.4,30.44,NW,304,1.0,4.0,71,0.00,,,0.01,Wunderground v.1.15,2013-01-10 03:15:00,